Time;durP1;ratioP1;P1;durP2;ratioP2;P2;SDS_P1;SDS_P2;PMS_P1;PMS_P2;Temp;Humidity;BMP_temperature;BMP_pressure;BME280_temperature;BME280_humidity;BME280_pressure;Samples;Min_cycle;Max_cycle;Signal;HPM_P1;HPM_P2
2022/06/08 00:00:22;;;;;;;8.17;5.33;;;12.80;1.00;;;;;;5073926;28;20762;-66
2022/06/08 00:02:55;;;;;;;9.63;6.30;;;12.80;1.00;;;;;;5073745;28;20378;-66
2022/06/08 00:05:21;;;;;;;6.03;5.30;;;12.80;1.00;;;;;;5073682;28;20552;-66
2022/06/08 00:07:47;;;;;;;9.53;5.20;;;12.70;1.00;;;;;;5072349;28;20419;-65
2022/06/08 00:10:13;;;;;;;11.23;5.53;;;12.70;1.00;;;;;;5071113;28;20514;-65
2022/06/08 00:12:38;;;;;;;6.43;4.40;;;12.60;1.00;;;;;;5073710;28;20170;-66
2022/06/08 00:15:09;;;;;;;7.10;5.53;;;12.70;1.00;;;;;;5072824;28;20167;-66
2022/06/08 00:17:35;;;;;;;7.10;5.67;;;12.70;1.00;;;;;;5072740;28;20165;-65
2022/06/08 00:20:03;;;;;;;5.43;4.93;;;12.70;1.00;;;;;;5073339;28;20419;-65
2022/06/08 00:22:28;;;;;;;6.00;5.30;;;12.70;1.00;;;;;;5072050;28;20708;-70
2022/06/08 00:24:54;;;;;;;6.40;5.10;;;12.60;1.00;;;;;;5073012;28;20386;-66
2022/06/08 00:27:20;;;;;;;10.10;4.70;;;12.70;1.00;;;;;;5072454;28;20166;-66
2022/06/08 00:29:45;;;;;;;9.40;4.93;;;12.60;3.50;;;;;;5073503;28;20190;-73
2022/06/08 00:32:11;;;;;;;6.43;4.93;;;12.60;5.20;;;;;;5073632;28;20253;-65
2022/06/08 00:34:37;;;;;;;5.20;4.80;;;12.60;10.90;;;;;;5073308;28;20170;-72
2022/06/08 00:37:03;;;;;;;6.83;5.30;;;12.60;11.40;;;;;;5070035;28;20688;-66
2022/06/08 00:39:29;;;;;;;5.90;5.20;;;12.60;7.60;;;;;;5072305;28;20202;-66
2022/06/08 00:42:00;;;;;;;10.37;5.77;;;12.60;10.40;;;;;;5073079;28;20474;-73
2022/06/08 00:44:44;;;;;;;9.00;5.23;;;12.60;15.60;;;;;;5072245;28;20186;-75
2022/06/08 00:47:15;;;;;;;10.97;6.07;;;12.60;17.40;;;;;;5072269;28;20508;-66
2022/06/08 00:50:04;;;;;;;5.73;5.20;;;12.60;21.50;;;;;;5073246;28;20403;-73
2022/06/08 00:52:33;;;;;;;9.87;5.17;;;12.60;24.00;;;;;;5072043;28;20403;-66
2022/06/08 00:55:03;;;;;;;7.00;5.30;;;12.60;25.40;;;;;;5073341;28;20375;-73
2022/06/08 00:57:51;;;;;;;11.07;4.80;;;12.60;24.50;;;;;;5072101;28;20383;-73
2022/06/08 01:00:25;;;;;;;5.80;4.73;;;12.60;30.40;;;;;;5072689;28;20704;-73
2022/06/08 01:02:51;;;;;;;9.93;4.77;;;12.60;27.60;;;;;;5073172;28;20371;-66
2022/06/08 01:05:31;;;;;;;10.23;6.40;;;12.60;21.70;;;;;;5071684;28;20434;-73
2022/06/08 01:08:05;;;;;;;5.90;4.90;;;12.60;26.60;;;;;;5070847;28;20389;-73
2022/06/08 01:10:42;;;;;;;8.50;5.37;;;12.60;23.80;;;;;;5073018;28;20398;-66
2022/06/08 01:13:07;;;;;;;5.33;4.80;;;12.60;24.10;;;;;;5071879;28;20384;-73
2022/06/08 01:15:36;;;;;;;9.00;4.67;;;12.50;20.50;;;;;;5072843;28;20387;-73
2022/06/08 01:18:03;;;;;;;6.27;4.70;;;12.50;19.50;;;;;;5071587;28;20210;-73
2022/06/08 01:20:29;;;;;;;6.40;4.90;;;12.50;22.80;;;;;;5071710;28;20488;-73
2022/06/08 01:22:55;;;;;;;5.50;5.00;;;12.50;23.70;;;;;;5072967;28;20379;-72
2022/06/08 01:25:21;;;;;;;5.33;4.83;;;12.40;17.20;;;;;;5074182;28;20201;-73
2022/06/08 01:27:59;;;;;;;11.00;4.57;;;12.40;17.50;;;;;;5075582;28;20185;-66
2022/06/08 01:30:36;;;;;;;6.27;4.77;;;12.30;16.80;;;;;;5075690;28;20398;-65
2022/06/08 01:33:21;;;;;;;5.10;4.60;;;12.40;21.90;;;;;;5075532;28;20390;-73
2022/06/08 01:36:11;;;;;;;10.23;5.40;;;12.30;26.60;;;;;;5075905;28;20459;-73
2022/06/08 01:39:02;;;;;;;6.97;6.10;;;12.30;29.10;;;;;;5075606;28;20406;-65
2022/06/08 01:42:05;;;;;;;5.93;5.43;;;12.30;30.40;;;;;;5076387;28;20379;-74
2022/06/08 01:45:33;;;;;;;6.30;4.57;;;12.40;26.40;;;;;;5076026;28;20507;-73
2022/06/08 01:47:58;;;;;;;5.30;4.90;;;12.40;28.30;;;;;;5075237;28;20416;-73
2022/06/08 01:50:54;;;;;;;5.10;4.60;;;12.30;24.60;;;;;;5076262;28;20450;-65
2022/06/08 01:53:34;;;;;;;9.73;4.73;;;12.40;22.10;;;;;;5076056;28;20172;-66
2022/06/08 01:56:15;;;;;;;6.17;4.93;;;12.30;21.50;;;;;;5076119;28;20370;-73
2022/06/08 01:59:07;;;;;;;6.00;4.83;;;12.30;20.10;;;;;;5075264;28;20399;-65
2022/06/08 02:01:53;;;;;;;7.97;5.60;;;12.30;19.60;;;;;;5076149;28;20391;-73
2022/06/08 02:04:39;;;;;;;6.77;5.13;;;12.20;24.30;;;;;;5075082;28;20444;-74
2022/06/08 02:07:22;;;;;;;7.30;5.80;;;12.20;34.30;;;;;;5075034;28;20465;-73
2022/06/08 02:10:00;;;;;;;5.80;4.70;;;12.20;34.30;;;;;;5074556;28;20519;-66
2022/06/08 02:12:30;;;;;;;10.63;5.60;;;12.30;34.40;;;;;;5074201;28;20952;-74
2022/06/08 02:15:08;;;;;;;16.53;5.97;;;12.30;34.30;;;;;;5075750;28;20399;-65
2022/06/08 02:17:51;;;;;;;14.60;7.33;;;12.30;34.30;;;;;;5074944;28;20371;-66
2022/06/08 02:20:21;;;;;;;8.10;5.30;;;12.30;34.30;;;;;;5075732;28;20815;-66
2022/06/08 02:23:02;;;;;;;9.53;6.00;;;12.30;39.60;;;;;;5075627;28;20386;-73
2022/06/08 02:25:36;;;;;;;11.40;5.20;;;12.40;43.20;;;;;;5074306;28;20467;-73
2022/06/08 02:28:10;;;;;;;5.87;5.27;;;12.40;41.10;;;;;;5074505;28;20419;-68
2022/06/08 02:31:08;;;;;;;7.43;5.77;;;12.40;50.80;;;;;;5075047;28;20381;-66
2022/06/08 02:36:34;;;;;;;7.73;5.13;;;12.50;52.90;;;;;;5074705;28;20420;-65
2022/06/08 02:39:08;;;;;;;9.27;6.17;;;12.50;49.70;;;;;;5074070;28;20509;-65
2022/06/08 02:41:35;;;;;;;7.60;5.70;;;12.50;51.60;;;;;;5074285;28;20391;-65
2022/06/08 02:44:06;;;;;;;5.53;5.00;;;12.60;49.20;;;;;;5075191;28;20782;-73
2022/06/08 02:47:00;;;;;;;8.80;6.13;;;12.50;45.40;;;;;;5073794;28;20442;-73
2022/06/08 02:49:25;;;;;;;5.80;5.20;;;12.60;47.80;;;;;;5075213;28;20485;-73
2022/06/08 02:51:56;;;;;;;13.13;6.90;;;12.50;34.60;;;;;;5075201;28;20489;-72
2022/06/08 02:54:26;;;;;;;9.90;5.67;;;12.50;34.50;;;;;;5073825;28;20308;-72
2022/06/08 02:57:03;;;;;;;6.90;5.37;;;12.50;34.50;;;;;;5074125;28;20387;-72
2022/06/08 02:59:29;;;;;;;5.87;5.00;;;12.50;34.50;;;;;;5074973;28;20489;-65
2022/06/08 03:02:32;;;;;;;7.73;5.27;;;12.50;34.60;;;;;;5075044;28;20379;-65
2022/06/08 03:05:08;;;;;;;6.60;5.37;;;12.50;33.30;;;;;;5069561;28;20178;-73
2022/06/08 03:07:54;;;;;;;7.30;5.53;;;12.50;34.50;;;;;;5072727;28;20767;-66
2022/06/08 03:10:21;;;;;;;7.03;5.10;;;12.60;34.70;;;;;;5074428;28;20379;-73
2022/06/08 03:12:58;;;;;;;5.97;5.40;;;12.50;34.50;;;;;;5074691;28;20405;-73
2022/06/08 03:15:25;;;;;;;6.33;5.67;;;12.60;34.80;;;;;;5074664;28;20409;-73
2022/06/08 03:17:51;;;;;;;8.40;4.97;;;12.60;34.70;;;;;;5073592;28;20409;-66
2022/06/08 03:20:20;;;;;;;5.13;4.63;;;12.60;34.80;;;;;;5074504;28;20421;-71
2022/06/08 03:22:46;;;;;;;8.60;5.70;;;12.70;34.80;;;;;;5073216;28;20414;-73
2022/06/08 03:25:13;;;;;;;6.03;5.43;;;12.70;34.80;;;;;;5074135;28;20386;-69
2022/06/08 03:27:39;;;;;;;6.50;5.83;;;12.70;34.80;;;;;;5073425;28;20397;-74
2022/06/08 03:30:06;;;;;;;6.33;5.10;;;12.70;32.70;;;;;;5074438;28;20403;-66
2022/06/08 03:32:32;;;;;;;6.20;5.60;;;12.70;31.90;;;;;;5074106;28;20602;-66
2022/06/08 03:34:57;;;;;;;7.87;5.90;;;12.70;28.70;;;;;;5073081;28;20445;-66
2022/06/08 03:37:23;;;;;;;6.77;5.50;;;12.70;34.80;;;;;;5073568;28;20162;-67
2022/06/08 03:39:49;;;;;;;9.87;6.50;;;12.80;34.90;;;;;;5074039;28;20189;-73
2022/06/08 03:42:15;;;;;;;10.47;6.67;;;12.90;37.00;;;;;;5073765;28;20405;-66
2022/06/08 03:44:41;;;;;;;7.30;5.97;;;12.80;34.70;;;;;;5073964;28;20392;-67
2022/06/08 03:47:15;;;;;;;13.60;6.67;;;12.80;29.50;;;;;;5073170;28;20786;-72
2022/06/08 03:49:41;;;;;;;6.70;5.07;;;12.90;35.00;;;;;;5071763;28;20661;-73
2022/06/08 03:52:12;;;;;;;10.60;6.23;;;12.90;35.00;;;;;;5072992;28;20400;-73
2022/06/08 03:54:42;;;;;;;7.23;6.50;;;13.00;35.10;;;;;;5074020;28;20209;-73
2022/06/08 03:57:09;;;;;;;9.23;6.10;;;13.00;35.10;;;;;;5072913;28;20474;-73
2022/06/08 03:59:40;;;;;;;12.50;6.27;;;13.00;33.70;;;;;;5073573;28;20435;-71
2022/06/08 04:02:06;;;;;;;10.13;6.43;;;13.00;29.80;;;;;;5073659;28;20404;-65
2022/06/08 04:04:32;;;;;;;6.20;5.70;;;13.00;31.00;;;;;;5072422;28;20515;-65
2022/06/08 04:06:57;;;;;;;6.30;5.70;;;13.00;23.40;;;;;;5072636;28;20791;-66
2022/06/08 04:09:23;;;;;;;6.30;5.70;;;13.00;25.70;;;;;;5073810;28;20418;-66
2022/06/08 04:11:49;;;;;;;11.83;6.37;;;13.10;27.40;;;;;;5073724;28;20523;-73
2022/06/08 04:14:14;;;;;;;6.90;5.97;;;13.20;22.80;;;;;;5073665;28;20166;-65
2022/06/08 04:16:40;;;;;;;9.23;5.97;;;13.20;14.00;;;;;;5072547;28;20577;-71
2022/06/08 04:19:06;;;;;;;11.33;8.20;;;13.10;6.60;;;;;;5071801;28;20256;-67
2022/06/08 04:21:32;;;;;;;8.30;6.40;;;13.10;7.10;;;;;;5073513;28;20408;-74
2022/06/08 04:24:00;;;;;;;9.37;6.10;;;13.20;5.00;;;;;;5073590;28;20162;-65
2022/06/08 04:26:27;;;;;;;10.00;6.30;;;13.20;4.40;;;;;;5073061;28;20269;-70
2022/06/08 04:28:53;;;;;;;8.20;6.90;;;13.20;3.60;;;;;;5072856;28;20404;-73
2022/06/08 04:31:19;;;;;;;7.00;5.77;;;13.20;6.70;;;;;;5073298;28;20476;-73
2022/06/08 04:33:45;;;;;;;6.90;6.17;;;13.20;2.10;;;;;;5072476;28;20430;-66
2022/06/08 04:36:11;;;;;;;8.13;6.80;;;13.20;1.00;;;;;;5071710;28;20818;-66
2022/06/08 04:38:37;;;;;;;7.40;5.73;;;13.20;1.00;;;;;;5072461;28;20677;-65
2022/06/08 04:41:03;;;;;;;8.40;5.60;;;13.20;1.00;;;;;;5073175;28;20379;-73
2022/06/08 04:43:29;;;;;;;11.70;6.50;;;13.20;1.00;;;;;;5073241;28;20174;-73
2022/06/08 04:45:55;;;;;;;8.10;7.30;;;13.20;1.00;;;;;;5073307;28;20473;-65
2022/06/08 04:48:21;;;;;;;11.17;6.93;;;13.20;1.00;;;;;;5070861;28;20505;-65
2022/06/08 04:50:48;;;;;;;8.47;6.20;;;13.20;1.00;;;;;;5073273;28;20166;-64
2022/06/08 04:53:14;;;;;;;11.00;7.00;;;13.30;1.00;;;;;;5072849;28;20727;-70
2022/06/08 04:55:40;;;;;;;11.23;6.33;;;13.30;1.00;;;;;;5073163;28;20383;-73
2022/06/08 04:58:06;;;;;;;15.33;8.03;;;13.30;1.00;;;;;;5072294;28;20431;-63
2022/06/08 05:00:32;;;;;;;11.13;8.70;;;13.30;1.00;;;;;;5075131;28;20173;-69
2022/06/08 05:02:58;;;;;;;9.73;7.23;;;13.30;1.00;;;;;;5076155;28;20883;-70
2022/06/08 05:05:31;;;;;;;9.90;8.00;;;13.30;1.00;;;;;;5075613;28;20430;-69
2022/06/08 05:07:58;;;;;;;11.97;8.60;;;13.40;1.00;;;;;;5073780;28;20416;-63
2022/06/08 05:10:28;;;;;;;11.10;7.80;;;13.40;1.00;;;;;;5076113;28;20435;-63
2022/06/08 05:12:55;;;;;;;8.60;7.63;;;13.40;1.00;;;;;;5076611;28;20415;-72
2022/06/08 05:15:24;;;;;;;16.07;8.33;;;13.40;1.00;;;;;;5076896;28;20442;-65
2022/06/08 05:17:49;;;;;;;8.43;7.03;;;13.40;1.00;;;;;;5075842;28;20359;-64
2022/06/08 05:20:19;;;;;;;9.20;7.50;;;13.40;1.00;;;;;;5076807;28;20434;-72
2022/06/08 05:22:46;;;;;;;9.70;7.77;;;13.50;1.00;;;;;;5075562;28;20174;-72
2022/06/08 05:25:19;;;;;;;12.17;7.40;;;13.50;1.00;;;;;;5076647;28;20378;-64
2022/06/08 05:27:45;;;;;;;15.50;7.57;;;13.40;1.00;;;;;;5075745;28;20412;-71
2022/06/08 05:30:11;;;;;;;10.37;8.10;;;13.30;1.00;;;;;;5076317;28;20396;-64
2022/06/08 05:32:39;;;;;;;10.73;7.60;;;13.30;1.00;;;;;;5075369;28;20178;-72
2022/06/08 05:35:05;;;;;;;12.73;7.77;;;13.50;1.00;;;;;;5076537;28;20386;-64
2022/06/08 05:37:31;;;;;;;8.33;7.33;;;13.50;1.00;;;;;;5074114;28;20424;-65
2022/06/08 05:39:57;;;;;;;14.03;8.30;;;13.50;1.00;;;;;;5075266;28;20531;-64
2022/06/08 05:42:23;;;;;;;14.27;9.83;;;13.60;1.00;;;;;;5075693;28;20919;-64
2022/06/08 05:44:49;;;;;;;14.07;8.77;;;13.60;1.00;;;;;;5075459;28;20169;-64
2022/06/08 05:47:16;;;;;;;14.07;10.27;;;13.70;1.00;;;;;;5074198;28;20450;-71
2022/06/08 05:49:43;;;;;;;10.70;9.10;;;13.80;1.00;;;;;;5075936;28;20395;-64
2022/06/08 05:52:09;;;;;;;10.73;8.90;;;13.90;1.00;;;;;;5076376;28;20805;-72
2022/06/08 05:54:35;;;;;;;10.80;8.37;;;14.00;1.00;;;;;;5076291;28;20890;-64
2022/06/08 05:57:02;;;;;;;14.67;8.80;;;14.00;1.00;;;;;;5074224;28;20431;-64
2022/06/08 05:59:28;;;;;;;9.83;8.90;;;14.10;1.00;;;;;;5075776;28;20759;-72
2022/06/08 06:01:53;;;;;;;12.63;8.80;;;14.00;1.00;;;;;;5074629;28;20387;-64
2022/06/08 06:04:20;;;;;;;13.93;9.57;;;14.00;1.00;;;;;;5075465;28;20170;-72
2022/06/08 06:06:46;;;;;;;10.53;8.33;;;14.10;1.00;;;;;;5074979;28;20198;-64
2022/06/08 06:09:14;;;;;;;14.67;10.00;;;14.10;1.00;;;;;;5075860;28;20421;-71
2022/06/08 06:11:40;;;;;;;9.00;8.00;;;14.30;1.00;;;;;;5074886;28;20197;-64
2022/06/08 06:14:06;;;;;;;11.10;8.00;;;14.30;1.00;;;;;;5074595;28;20439;-64
2022/06/08 06:16:32;;;;;;;12.23;8.60;;;14.20;1.00;;;;;;5074204;28;20789;-64
2022/06/08 06:18:58;;;;;;;9.10;8.07;;;14.30;1.00;;;;;;5074796;28;20488;-71
2022/06/08 06:21:26;;;;;;;7.90;6.30;;;14.40;1.00;;;;;;5075197;28;20186;-73
2022/06/08 06:23:54;;;;;;;7.47;6.70;;;14.40;1.00;;;;;;5075207;28;20174;-64
2022/06/08 06:26:19;;;;;;;10.50;7.07;;;14.40;1.00;;;;;;5075250;28;20539;-64
2022/06/08 06:28:46;;;;;;;5.17;4.60;;;14.40;1.00;;;;;;5074779;28;20512;-63
2022/06/08 06:31:22;;;;;;;4.23;3.93;;;14.50;1.00;;;;;;5075541;28;20184;-65
2022/06/08 06:33:48;;;;;;;5.20;4.80;;;14.30;1.00;;;;;;5074629;28;20524;-72
2022/06/08 06:36:13;;;;;;;5.37;4.87;;;14.30;1.00;;;;;;5075204;28;20508;-66
2022/06/08 06:38:39;;;;;;;9.20;5.87;;;14.20;1.00;;;;;;5074604;28;20190;-65
2022/06/08 06:41:05;;;;;;;6.40;5.40;;;14.30;1.00;;;;;;5075100;28;20166;-65
2022/06/08 06:43:31;;;;;;;6.50;5.63;;;14.40;1.00;;;;;;5073915;28;20639;-73
2022/06/08 06:45:57;;;;;;;4.63;4.20;;;14.40;1.00;;;;;;5075128;28;20448;-68
2022/06/08 06:48:22;;;;;;;4.80;4.40;;;14.50;1.00;;;;;;5074162;28;20282;-65
2022/06/08 06:50:48;;;;;;;6.67;4.80;;;14.60;1.00;;;;;;5074055;28;20216;-74
2022/06/08 06:53:14;;;;;;;5.90;3.87;;;14.60;1.00;;;;;;5074038;28;20180;-74
2022/06/08 06:55:40;;;;;;;7.93;4.03;;;14.70;1.00;;;;;;5075219;28;20659;-72
2022/06/08 06:58:06;;;;;;;4.47;4.00;;;14.90;1.00;;;;;;5073958;28;20558;-74
2022/06/08 07:00:33;;;;;;;4.07;3.77;;;15.00;1.00;;;;;;5074284;28;20896;-73
2022/06/08 07:02:59;;;;;;;6.80;4.40;;;15.00;1.00;;;;;;5075202;28;20409;-65
2022/06/08 07:05:30;;;;;;;11.93;4.20;;;15.10;1.00;;;;;;5074995;28;20868;-73
2022/06/08 07:07:56;;;;;;;4.83;4.40;;;15.10;1.00;;;;;;5072532;28;20418;-73
2022/06/08 07:10:22;;;;;;;5.90;4.87;;;15.00;99.90;;;;;;5074521;28;20405;-65
2022/06/08 07:12:48;;;;;;;4.73;3.80;;;15.00;99.90;;;;;;5074104;28;20178;-67
2022/06/08 07:15:16;;;;;;;4.20;3.90;;;15.10;99.90;;;;;;5073443;28;20503;-73
2022/06/08 07:17:42;;;;;;;12.20;5.67;;;15.20;99.90;;;;;;5072930;28;20194;-64
2022/06/08 07:20:10;;;;;;;5.87;5.37;;;15.30;99.90;;;;;;5073898;28;20466;-73
2022/06/08 07:22:36;;;;;;;5.03;4.63;;;15.50;99.90;;;;;;5073227;28;20400;-65
2022/06/08 07:25:03;;;;;;;7.23;4.10;;;15.50;99.90;;;;;;5072821;28;20403;-72
2022/06/08 07:27:29;;;;;;;4.57;4.17;;;15.60;99.90;;;;;;5073055;28;20456;-68
2022/06/08 07:29:56;;;;;;;6.87;5.13;;;15.70;99.90;;;;;;5073736;28;20452;-75
2022/06/08 07:32:22;;;;;;;5.80;4.50;;;15.90;99.90;;;;;;5073817;28;20466;-65
2022/06/08 07:34:47;;;;;;;5.37;4.30;;;16.10;99.90;;;;;;5073778;28;20186;-63
2022/06/08 07:37:13;;;;;;;5.30;4.80;;;16.20;99.90;;;;;;5072858;28;20179;-63
2022/06/08 07:39:39;;;;;;;5.00;4.50;;;16.20;99.90;;;;;;5071661;28;20201;-66
2022/06/08 07:42:05;;;;;;;4.67;4.30;;;16.20;99.90;;;;;;5074118;28;20170;-67
2022/06/08 07:44:31;;;;;;;6.17;4.40;;;16.20;99.90;;;;;;5073566;28;20192;-64
2022/06/08 07:46:57;;;;;;;6.23;5.57;;;16.30;99.90;;;;;;5073031;28;20460;-65
2022/06/08 07:49:41;;;;;;;4.60;3.83;;;16.30;99.90;;;;;;5073238;28;20251;-72
2022/06/08 07:52:16;;;;;;;4.63;4.20;;;16.30;99.90;;;;;;5072461;28;20266;-65
2022/06/08 07:54:42;;;;;;;9.80;4.37;;;16.20;99.90;;;;;;5073545;28;20419;-71
2022/06/08 07:57:17;;;;;;;4.67;4.27;;;16.40;99.90;;;;;;5070177;28;20459;-71
2022/06/08 07:59:44;;;;;;;5.93;4.60;;;16.50;99.90;;;;;;5070788;28;20973;-64
2022/06/08 08:02:11;;;;;;;9.13;5.30;;;16.60;99.90;;;;;;5073925;28;20400;-71
2022/06/08 08:04:37;;;;;;;5.17;4.67;;;16.80;99.90;;;;;;5071459;28;20428;-70
2022/06/08 08:07:04;;;;;;;5.70;5.20;;;17.00;99.90;;;;;;5072747;28;20455;-72
2022/06/08 08:09:33;;;;;;;5.50;5.13;;;17.00;99.90;;;;;;5072906;28;20797;-65
2022/06/08 08:12:00;;;;;;;8.07;4.80;;;17.00;99.90;;;;;;5072565;28;20431;-64
2022/06/08 08:14:26;;;;;;;6.53;5.07;;;17.10;99.90;;;;;;5072865;28;20419;-65
2022/06/08 08:16:52;;;;;;;7.23;4.70;;;17.10;99.90;;;;;;5071408;28;20463;-72
2022/06/08 08:19:24;;;;;;;5.60;5.03;;;17.10;99.90;;;;;;5073416;28;20466;-65
2022/06/08 08:21:50;;;;;;;5.47;4.97;;;17.20;99.90;;;;;;5073434;28;20962;-65
2022/06/08 08:24:16;;;;;;;8.00;5.90;;;17.20;99.90;;;;;;5073546;28;20397;-64
2022/06/08 08:26:48;;;;;;;5.20;4.80;;;17.20;99.90;;;;;;5071466;28;20456;-65
2022/06/08 08:29:14;;;;;;;6.33;5.73;;;17.30;99.90;;;;;;5071005;28;20460;-71
2022/06/08 08:31:41;;;;;;;6.20;5.57;;;17.30;99.90;;;;;;5073253;28;20768;-65
2022/06/08 08:34:08;;;;;;;7.27;4.80;;;17.10;99.90;;;;;;5073187;28;20566;-65
2022/06/08 08:36:33;;;;;;;5.00;4.60;;;17.00;99.90;;;;;;5071518;28;20912;-65
2022/06/08 08:38:59;;;;;;;6.13;4.50;;;17.00;99.90;;;;;;5070763;28;20464;-70
2022/06/08 08:44:35;;;;;;;4.40;3.80;;;17.30;99.90;;;;;;5072859;28;20216;-71
2022/06/08 08:47:12;;;;;;;13.50;6.67;;;17.50;99.90;;;;;;5070980;28;20471;-66
2022/06/08 08:49:51;;;;;;;10.10;5.67;;;17.60;99.90;;;;;;5072849;28;20439;-73
2022/06/08 08:52:26;;;;;;;5.20;4.70;;;17.70;99.90;;;;;;5071768;28;20437;-65
2022/06/08 08:54:58;;;;;;;10.20;4.63;;;17.90;99.90;;;;;;5072306;28;20439;-72
2022/06/08 08:57:29;;;;;;;6.23;4.77;;;18.00;99.90;;;;;;5063995;28;20905;-72
2022/06/08 08:59:55;;;;;;;4.80;4.40;;;18.10;99.90;;;;;;5071316;28;20451;-74
2022/06/08 09:05:21;;;;;;;6.17;5.47;;;18.20;99.90;;;;;;5079651;28;20409;-73
2022/06/08 09:07:47;;;;;;;8.83;5.43;;;18.30;99.90;;;;;;5070348;28;20782;-73
2022/06/08 09:10:21;;;;;;;6.77;5.73;;;18.50;99.90;;;;;;5070718;28;20439;-73
2022/06/08 09:12:48;;;;;;;5.17;4.77;;;18.60;99.90;;;;;;5072130;28;20431;-65
2022/06/08 09:15:16;;;;;;;5.60;5.07;;;18.80;99.90;;;;;;5072524;28;20489;-74
2022/06/08 09:17:56;;;;;;;6.57;5.13;;;19.00;99.90;;;;;;5069714;28;20431;-74
2022/06/08 09:20:32;;;;;;;6.27;5.67;;;19.50;99.90;;;;;;5052803;28;20433;-74
2022/06/08 09:23:19;;;;;;;5.20;4.70;;;19.70;99.90;;;;;;5071949;28;20424;-67
2022/06/08 09:25:45;;;;;;;11.67;7.27;;;19.60;99.90;;;;;;5071142;28;20976;-74
2022/06/08 09:28:27;;;;;;;9.97;5.93;;;19.50;99.90;;;;;;5071423;28;20846;-64
2022/06/08 09:30:53;;;;;;;36.80;10.47;;;19.80;99.90;;;;;;5071551;28;20913;-65
2022/06/08 09:33:37;;;;;;;7.77;6.13;;;20.10;99.90;;;;;;5072707;28;20399;-71
2022/06/08 09:36:21;;;;;;;6.33;4.77;;;20.20;99.90;;;;;;5072919;28;20623;-73
2022/06/08 09:38:47;;;;;;;6.20;5.70;;;20.20;99.90;;;;;;5072066;28;20792;-65
2022/06/08 09:41:40;;;;;;;14.43;5.10;;;20.40;99.90;;;;;;5070966;28;20401;-71
2022/06/08 09:44:12;;;;;;;9.37;5.83;;;20.30;99.90;;;;;;5064064;28;20788;-63
2022/06/08 09:53:03;;;;;;;6.20;5.60;;;20.50;99.90;;;;;;5076634;28;20453;-65
2022/06/08 09:55:58;;;;;;;7.03;6.33;;;21.00;99.90;;;;;;5072416;28;20432;-73
2022/06/08 09:58:32;;;;;;;9.30;5.43;;;21.40;99.90;;;;;;5074793;28;20424;-66
2022/06/08 10:01:11;;;;;;;6.53;5.70;;;21.70;99.90;;;;;;5076181;28;20392;-65
2022/06/08 10:04:10;;;;;;;6.20;5.20;;;22.00;99.90;;;;;;5075938;28;20404;-72
2022/06/08 10:06:40;;;;;;;9.23;6.00;;;22.30;99.90;;;;;;5074987;28;20523;-73
2022/06/08 10:09:15;;;;;;;5.90;5.30;;;22.60;99.90;;;;;;5075543;28;20964;-66
2022/06/08 10:12:20;;;;;;;8.07;6.37;;;22.30;99.90;;;;;;5073397;28;20750;-74
2022/06/08 10:14:55;;;;;;;6.80;5.67;;;23.10;99.90;;;;;;5075124;28;20404;-73
2022/06/08 10:17:30;;;;;;;6.03;5.53;;;23.00;99.90;;;;;;5074136;28;20448;-75
2022/06/08 10:20:05;;;;;;;5.87;5.23;;;23.10;99.90;;;;;;5075259;28;20445;-66
2022/06/08 10:22:36;;;;;;;6.13;5.50;;;23.10;99.90;;;;;;5074654;28;20454;-66
2022/06/08 10:25:07;;;;;;;6.93;5.50;;;23.00;99.90;;;;;;5073891;28;20509;-66
2022/06/08 10:27:48;;;;;;;6.23;5.63;;;23.00;99.90;;;;;;5074681;28;20448;-73
2022/06/08 10:30:37;;;;;;;8.00;5.20;;;23.00;99.90;;;;;;5075342;28;20412;-73
2022/06/08 10:33:10;;;;;;;9.20;6.00;;;22.60;99.90;;;;;;5075322;28;20435;-66
2022/06/08 10:35:42;;;;;;;6.03;5.50;;;22.80;99.90;;;;;;5074789;28;20503;-71
2022/06/08 10:38:27;;;;;;;7.73;6.07;;;22.50;99.90;;;;;;5073110;28;20808;-73
2022/06/08 10:42:39;;;;;;;6.50;5.10;;;22.20;99.90;;;;;;5073929;28;20420;-75
2022/06/08 10:43:56;;;;;;;8.30;5.60;;;22.10;99.90;;;;;;5074845;28;20431;-71
2022/06/08 10:46:45;;;;;;;6.20;5.60;;;22.20;99.90;;;;;;5074929;28;20805;-70
2022/06/08 10:49:30;;;;;;;11.03;5.67;;;22.60;99.90;;;;;;5074962;28;20448;-64
2022/06/08 10:52:26;;;;;;;5.67;5.10;;;23.00;99.90;;;;;;5074633;28;20752;-63
2022/06/08 10:54:55;;;;;;;5.90;5.30;;;22.70;99.90;;;;;;5069718;28;20432;-63
2022/06/08 10:57:35;;;;;;;6.00;5.50;;;22.30;99.90;;;;;;5073833;28;20411;-72
2022/06/08 11:00:19;;;;;;;9.10;7.60;;;22.20;99.90;;;;;;5074396;28;20432;-68
2022/06/08 11:02:54;;;;;;;6.57;5.77;;;22.20;99.90;;;;;;5073621;28;20487;-70
2022/06/08 11:05:46;;;;;;;7.17;5.03;;;22.80;99.90;;;;;;5075010;28;20490;-65
2022/06/08 11:08:15;;;;;;;5.80;5.20;;;22.80;97.00;;;;;;5072121;28;20433;-68
2022/06/08 11:10:44;;;;;;;8.97;6.53;;;22.40;96.60;;;;;;5073260;28;20427;-64
2022/06/08 11:13:18;;;;;;;8.50;5.57;;;22.00;96.40;;;;;;5074352;28;20404;-69
2022/06/08 11:16:16;;;;;;;6.63;5.73;;;21.80;99.90;;;;;;5074789;28;20962;-64
2022/06/08 11:18:49;;;;;;;7.30;6.07;;;22.10;99.90;;;;;;5073633;28;20543;-70
2022/06/08 11:21:14;;;;;;;6.77;5.70;;;22.30;98.90;;;;;;5074655;28;20401;-70
2022/06/08 11:24:01;;;;;;;10.00;5.80;;;22.30;96.80;;;;;;5073300;28;20416;-71
2022/06/08 11:26:43;;;;;;;8.10;6.27;;;21.90;96.40;;;;;;5072626;28;20193;-68
2022/06/08 11:29:17;;;;;;;6.20;5.20;;;21.60;96.30;;;;;;5073925;28;20451;-63
2022/06/08 11:31:43;;;;;;;5.53;4.80;;;21.50;96.30;;;;;;5074401;28;20399;-63
2022/06/08 11:34:21;;;;;;;6.23;5.60;;;21.40;96.20;;;;;;5074036;28;20413;-63
2022/06/08 11:37:24;;;;;;;7.17;5.83;;;21.50;96.30;;;;;;5073373;28;20181;-67
2022/06/08 11:40:08;;;;;;;7.63;5.40;;;22.70;99.90;;;;;;5054144;28;20432;-66
2022/06/08 11:42:43;;;;;;;6.53;5.40;;;23.70;99.90;;;;;;5056621;28;20549;-74
2022/06/08 11:45:38;;;;;;;5.47;4.20;;;24.40;99.90;;;;;;5074124;28;20400;-66
2022/06/08 11:48:17;;;;;;;8.60;5.87;;;24.40;97.30;;;;;;5069712;28;20439;-67
2022/06/08 11:51:03;;;;;;;6.87;4.93;;;24.00;97.20;;;;;;5073903;28;20916;-66
2022/06/08 11:53:36;;;;;;;6.20;5.50;;;23.70;97.10;;;;;;5073641;28;20416;-66
2022/06/08 11:56:42;;;;;;;10.33;6.60;;;23.80;97.10;;;;;;5072663;28;20904;-71
2022/06/08 11:59:19;;;;;;;6.70;5.80;;;24.00;97.20;;;;;;5070550;28;20801;-63
2022/06/08 12:02:01;;;;;;;9.53;7.07;;;23.60;97.00;;;;;;5073802;28;20440;-72
2022/06/08 12:04:30;;;;;;;6.07;4.73;;;23.30;96.90;;;;;;5073207;28;20773;-73
2022/06/08 12:06:57;;;;;;;8.13;5.50;;;23.30;96.90;;;;;;5072778;28;20444;-72
2022/06/08 12:09:34;;;;;;;9.33;6.43;;;23.10;96.80;;;;;;5071593;28;20449;-66
2022/06/08 12:12:18;;;;;;;5.40;5.00;;;23.10;96.90;;;;;;5073838;28;20396;-66
2022/06/08 12:14:44;;;;;;;5.07;4.57;;;23.20;96.90;;;;;;5072150;28;20412;-66
2022/06/08 12:17:10;;;;;;;7.13;4.90;;;23.60;97.10;;;;;;5072806;28;20411;-74
2022/06/08 12:19:55;;;;;;;4.47;4.10;;;24.50;97.40;;;;;;5073095;28;20945;-66
2022/06/08 12:22:25;;;;;;;5.60;4.80;;;24.70;97.50;;;;;;5073285;28;20172;-70
2022/06/08 12:25:09;;;;;;;5.60;4.43;;;24.20;92.90;;;;;;5073260;28;20496;-71
2022/06/08 12:27:52;;;;;;;5.03;4.13;;;23.60;91.70;;;;;;5070196;28;20491;-71
2022/06/08 12:30:44;;;;;;;4.83;4.43;;;23.10;90.50;;;;;;5072494;28;20413;-65
2022/06/08 12:33:16;;;;;;;6.40;5.57;;;22.70;91.00;;;;;;5070301;28;20423;-64
2022/06/08 12:36:31;;;;;;;6.77;5.13;;;22.50;88.60;;;;;;5073474;28;20487;-64
2022/06/08 12:39:12;;;;;;;11.27;6.10;;;22.20;88.40;;;;;;5061857;28;20457;-64
2022/06/08 12:41:50;;;;;;;5.70;5.10;;;21.90;87.30;;;;;;5052314;28;20754;-65
2022/06/08 12:44:28;;;;;;;6.13;5.00;;;22.20;92.30;;;;;;5064360;28;20428;-71
2022/06/08 12:47:12;;;;;;;4.53;4.13;;;22.60;94.30;;;;;;5070983;28;20452;-64
2022/06/08 12:49:51;;;;;;;5.83;5.33;;;22.80;94.10;;;;;;5072954;28;20531;-65
2022/06/08 12:52:26;;;;;;;6.83;5.27;;;22.90;92.90;;;;;;5073285;28;20457;-65
2022/06/08 12:54:52;;;;;;;6.63;5.90;;;22.90;93.60;;;;;;5072862;28;20416;-72
2022/06/08 12:57:25;;;;;;;22.70;7.97;;;22.80;92.50;;;;;;5072241;28;20400;-72
2022/06/08 12:59:57;;;;;;;5.20;4.70;;;22.40;92.40;;;;;;5071157;28;20444;-66
2022/06/08 13:02:37;;;;;;;5.10;4.70;;;22.20;91.90;;;;;;5071714;28;20404;-69
2022/06/08 13:05:16;;;;;;;6.33;5.33;;;21.80;94.10;;;;;;5088384;28;20754;-64
2022/06/08 13:07:42;;;;;;;10.27;5.83;;;21.70;95.90;;;;;;5072213;28;20975;-69
2022/06/08 13:10:09;;;;;;;10.07;6.50;;;21.50;95.70;;;;;;5071846;28;20408;-74
2022/06/08 13:12:40;;;;;;;5.80;5.20;;;21.50;92.30;;;;;;5071027;28;20778;-78
2022/06/08 13:15:41;;;;;;;5.67;5.10;;;21.50;93.20;;;;;;5072822;28;20414;-67
2022/06/08 13:18:10;;;;;;;5.60;5.10;;;21.70;96.30;;;;;;5047701;28;20440;-68
2022/06/08 13:20:38;;;;;;;7.90;5.40;;;21.90;96.40;;;;;;5072999;28;20431;-72
2022/06/08 13:23:04;;;;;;;5.50;4.53;;;22.00;96.40;;;;;;5076922;28;20411;-67
2022/06/08 13:25:33;;;;;;;7.43;4.70;;;22.20;96.50;;;;;;5076517;28;20422;-65
2022/06/08 13:27:59;;;;;;;6.27;5.67;;;22.30;96.60;;;;;;5075836;28;20424;-72
2022/06/08 13:30:31;;;;;;;5.40;4.90;;;22.40;96.60;;;;;;5076229;28;20408;-67